Roaring Spring, Pennsylvania
Current Conditions -  °F | °C
As of 4:53 PM on Thursday 23 Oct 2014 (Local Time) from KAOO Reporting Station
Overcast Overcast  
Wind Chill: 61°   Ceiling: 5000
Heat Index: 61°   Visibility: 10mi
Dew Point: 40°   Wind: 18mph
Humidity: 46%   Direction: 330°NNW
Pressure: 29.94"   Gusts: 25mph
Location:  40.34°N, 78.39°W
Report Text: KAOO 232053Z AUTO 33016G22KT 10SM OVC050 16/04 A2994 RMK AO2 PK WND 32027/2007 SLP140 T01610044 55001
Loading
Personal Weather Stations






























Interactive Weather Map
Tropical Storm Tracking
New forecast layout! Learn more

10-Day Weather Forecast

Advertisements
Track Severe Weather on mobile